Home > Products > Valid Products > TAF

000
FTUS46 KMFR 271141
TAFOTH
TAF
KOTH 271141Z 2712/2812 17004KT P6SM SCT007 OVC020
     FM272100 23007KT P6SM BKN025 BKN150
     FM280200 17005KT P6SM BKN018 OVC035=



000
FTUS46 KMFR 271141
TAFLMT
TAF
KLMT 271141Z 2712/2812 00000KT P6SM SCT100 BKN150
     FM271800 22005KT P6SM SCT060 BKN100=



000
FTUS46 KMFR 271141
TAFRBG
TAF
KRBG 271141Z 2712/2812 00000KT 1/2SM FG VV002
     FM272100 VRB02KT P6SM BKN020
     FM280100 VRB03KT P6SM BKN030
     FM280800 00000KT P6SM OVC012=



000
FTUS46 KMFR 271141
TAFMFR
TAF
KMFR 271141Z 2712/2812 00000KT 1/4SM FG VV002
     FM272100 VRB03KT 2SM BR SCT004 SCT030 BKN120
     FM272300 VRB03KT P6SM SCT030 BKN120=



000
FTUS46 KMFR 270521
TAFMFR
TAF
KMFR 270521Z 2706/2806 VRB03KT 4SM BR SCT200
     FM270700 00000KT 2SM BR OVC002
     FM270900 00000KT 1/4SM FG VV002
     FM272100 VRB03KT P6SM SCT030 BKN120=



000
FTUS46 KMFR 270521
TAFOTH
TAF
KOTH 270521Z 2706/2806 20004KT 6SM -DZ BR SCT005 OVC014
     FM271100 17004KT 6SM -DZ BR OVC008
     FM271500 16004KT P6SM SCT007 OVC015
     FM272100 23007KT P6SM BKN020 BKN150
     FM280200 16005KT P6SM OVC012=



000
FTUS46 KMFR 270521
TAFLMT
TAF
KLMT 270521Z 2706/2806 VRB03KT P6SM SKC
     FM271200 00000KT P6SM SCT100 BKN200
     FM271800 22005KT P6SM SCT060 BKN100=



000
FTUS46 KMFR 270521
TAFRBG
TAF
KRBG 270521Z 2706/2806 VRB03KT P6SM SCT200
     FM270700 00000KT 2SM BR BKN002
     FM270900 00000KT 1/4SM FG VV002
     FM271600 00000KT 1/2SM FG OVC003
     FM272100 VRB02KT P6SM SCT003=



000
FTUS46 KMFR 262325
TAFRBG
TAF
KRBG 262325Z 2700/2724 VRB03KT P6SM SCT200
     FM270700 00000KT 2SM BR BKN002
     FM270900 00000KT 1/4SM FG VV002
     FM271600 00000KT 1/2SM FG OVC003
     FM272130 VRB02KT P6SM SCT003=



000
FTUS46 KMFR 262325
TAFOTH
TAF
KOTH 262325Z 2700/2724 24008KT P6SM SCT015 SCT200
     FM270100 27005KT 5SM BR SCT006 OVC012
     FM270400 18004KT 3SM -DZ BR SCT005 OVC007
     FM271500 16004KT P6SM SCT007 OVC015
     FM272100 19005KT P6SM SCT015 BKN170=



000
FTUS46 KMFR 262325
TAFLMT
TAF
KLMT 262325Z 2700/2724 VRB03KT P6SM SKC
     FM271200 00000KT P6SM SCT100 BKN200
     FM271800 22005KT P6SM BKN100=



000
FTUS46 KMFR 262325
TAFMFR
TAF
KMFR 262325Z 2700/2724 VRB03KT P6SM FEW250
     FM270700 00000KT 2SM BR OVC002
     FM270900 00000KT 1/4SM FG VV002
     FM272130 VRB01KT P6SM SCT002 BKN170=



000
FTUS46 KMFR 262001 AAC
TAFMFR
TAF AMD
KMFR 262001Z 2620/2718 00000KT 1/4SM FG VV002
     FM262100 00000KT 1SM BR OVC002
     FM262200 VRB03KT P6SM FEW250
     FM270900 00000KT 2SM BR OVC002
     FM271100 00000KT 1/4SM FG VV002=



000
FTUS46 KMFR 262001 AAB
TAFRBG
TAF AMD
KRBG 262001Z 2620/2718 00000KT 1/2SM FG VV002
     FM262100 00000KT 5SM BR BKN002
     FM262130 VRB03KT P6SM SCT200
     FM270700 00000KT 2SM BR BKN002
     FM270900 00000KT 1/4SM FG VV002
     FM271600 00000KT 1/2SM FG OVC003=



000
FTUS46 KMFR 261904 AAB
TAFMFR
TAF AMD
KMFR 261904Z 2619/2718 00000KT 1/4SM FG VV002
     FM262000 00000KT 1SM BR OVC002
     FM262100 VRB03KT P6SM FEW250
     FM270900 00000KT 2SM BR OVC002
     FM271100 00000KT 1/4SM FG VV002=



000
FTUS46 KMFR 261903 AAA
TAFRBG
TAF AMD
KRBG 261903Z 2619/2718 00000KT 1/2SM FG VV002
     FM262000 00000KT 5SM BR BKN002
     FM262030 VRB03KT P6SM SCT200
     FM270700 00000KT 2SM BR BKN002
     FM270900 00000KT 1/4SM FG VV002
     FM271600 00000KT 1/2SM FG OVC003=



000
FTUS46 KMFR 261741
TAFLMT
TAF
KLMT 261741Z 2618/2718 VRB03KT P6SM SKC
     FM271200 VRB02KT P6SM SCT100 BKN200=



000
FTUS46 KMFR 261741
TAFOTH
TAF
KOTH 261741Z 2618/2718 14007KT P6SM FEW015
     FM262000 24008KT P6SM SCT015 SCT200
     FM270100 22005KT 5SM BR SCT006 OVC012
     FM270400 20004KT 3SM BR SCT005 OVC008
     FM271500 16004KT P6SM SCT007 OVC015=



000
FTUS46 KMFR 261741
TAFMFR
TAF
KMFR 261741Z 2618/2718 00000KT 1/4SM FG VV001
     FM261930 00000KT 1SM BR OVC002
     FM262000 VRB03KT P6SM FEW250
     FM270900 00000KT 2SM BR OVC002
     FM271100 00000KT 1/4SM FG VV002=



000
FTUS46 KMFR 261741
TAFRBG
TAF
KRBG 261741Z 2618/2718 00000KT 1/4SM FG VV002
     FM261900 00000KT 3SM BR BKN002
     FM262000 VRB03KT P6SM SCT200
     FM270700 00000KT 2SM BR BKN002
     FM270900 00000KT 1/4SM FG VV002
     FM271600 00000KT 1/2SM FG OVC003=



000
FTUS46 KMFR 261120
TAFOTH
TAF
KOTH 261120Z 2612/2712 16005KT P6SM SKC
     FM262000 24008KT P6SM SCT015 SCT200
     FM270200 22005KT 5SM BR SCT006 OVC012
     FM270700 17004KT 3SM BR OVC006=



000
FTUS46 KMFR 261120
TAFMFR
TAF
KMFR 261120Z 2612/2712 00000KT 1/4SM FG VV001
     FM261800 00000KT 2SM BR OVC002
     FM261900 VRB03KT P6SM SCT200
     FM270900 00000KT 2SM BR OVC002
     FM271100 00000KT 1/4SM FG VV001=



000
FTUS46 KMFR 261120
TAFLMT
TAF
KLMT 261120Z 2612/2712 VRB03KT P6SM SCT200=



000
FTUS46 KMFR 261120
TAFRBG
TAF
KRBG 261120Z 2612/2712 00000KT 1/4SM FG VV001
     FM261900 00000KT 3SM BR OVC004
     FM262100 VRB03KT P6SM SCT200
     FM270700 00000KT 2SM BR OVC002
     FM270900 00000KT 1/4SM FG VV001=



000
FTUS46 KMFR 261008 AAA
TAFMFR
TAF AMD
KMFR 261008Z 2610/2706 00000KT 1/4SM FG VV001
     FM261800 00000KT 2SM BR OVC002
     FM261900 VRB03KT P6SM SCT150=



000
FTUS46 KMFR 260523
TAFOTH
TAF
KOTH 260523Z 2606/2706 16006KT 6SM BR SKC
     FM261200 17007KT P6SM SKC
     FM262000 26006KT P6SM SCT020 BKN150
     FM270300 25005KT P6SM OVC012=



000
FTUS46 KMFR 260523
TAFMFR
TAF
KMFR 260523Z 2606/2706 VRB02KT P6SM SKC
     FM260800 00000KT 6SM BR SKC
     FM260900 00000KT 3SM BR SCT002
     FM261100 00000KT 1/4SM FG OVC002
     FM261800 VRB03KT P6SM SCT150=



000
FTUS46 KMFR 260523
TAFRBG
TAF
KRBG 260523Z 2606/2706 VRB03KT P6SM SCT200
     FM260800 00000KT 4SM BR BKN002
     FM261000 00000KT 1/4SM FG VV001
     FM261700 00000KT 3SM BR OVC004
     FM261900 VRB03KT P6SM SCT150=



000
FTUS46 KMFR 260523
TAFLMT
TAF
KLMT 260523Z 2606/2706 VRB03KT P6SM SCT150=



000
FTUS46 KMFR 252339
TAFMFR
TAF
KMFR 252339Z 2600/2624 VRB02KT P6SM SCT200
     FM260700 00000KT 3SM BR SCT002
     FM260800 00000KT 1/4SM FG OVC002
     FM261700 00000KT 1SM BR OVC004=



000
FTUS46 KMFR 252339
TAFRBG
TAF
KRBG 252339Z 2600/2624 VRB03KT P6SM SCT200
     FM260800 00000KT 4SM BR OVC002
     FM261000 00000KT 1/4SM FG VV001
     FM261300 00000KT 3SM BR OVC004=



000
FTUS46 KMFR 252339
TAFLMT
TAF
KLMT 252339Z 2600/2624 VRB03KT P6SM SCT150=



000
FTUS46 KMFR 252339
TAFOTH
TAF
KOTH 252339Z 2600/2624 30006KT P6SM FEW200
     FM260800 16004KT 5SM BR BKN008
     FM261200 16007KT P6SM FEW010=



000
FTUS46 KMFR 252029 AAB
TAFMFR
TAF AMD
KMFR 252029Z 2520/2618 00000KT 3SM BR BKN002
     FM252100 VRB03KT P6SM SKC
     FM260700 00000KT 3SM BR SCT002
     FM260800 00000KT 1/4SM FG OVC002
     FM261700 00000KT 1SM BR OVC004=



000
FTUS46 KMFR 251926 AAA
TAFRBG
TAF AMD
KRBG 251926Z 2519/2618 00000KT P6SM SKC
     FM260800 00000KT 4SM BR OVC002
     FM261000 00000KT 1/4SM FG VV001
     FM261300 00000KT 3SM BR OVC004=



000
FTUS46 KMFR 251921 AAA
TAFMFR
TAF AMD
KMFR 251921Z 2519/2618 00000KT 1/4SM FG VV001
     FM252000 00000KT 2SM BR BKN002
     FM252200 VRB03KT P6SM SKC
     FM260700 00000KT 3SM BR SCT002
     FM260800 00000KT 1/4SM FG OVC002
     FM261700 00000KT 1SM BR OVC004=



000
FTUS46 KMFR 251732
TAFOTH
TAF
KOTH 251732Z 2518/2618 15004KT P6SM FEW200
     FM252000 27005KT P6SM SKC
     FM260800 16004KT 5SM BR BKN008
     FM261200 16007KT P6SM FEW010=



000
FTUS46 KMFR 251732
TAFRBG
TAF
KRBG 251732Z 2518/2618 00000KT 1/4SM FG VV001
     FM251900 00000KT 1SM BR OVC003
     FM252200 VRB02KT P6SM SKC
     FM260800 00000KT 4SM BR OVC002
     FM261000 00000KT 1/4SM FG VV001
     FM261300 00000KT 3SM BR OVC004=



000
FTUS46 KMFR 251732
TAFMFR
TAF
KMFR 251732Z 2518/2618 00000KT 1/4SM FG VV001
     FM251900 00000KT 2SM BR BKN002
     FM252200 VRB03KT P6SM SKC
     FM260700 00000KT 3SM BR SCT002
     FM260800 00000KT 1/4SM FG OVC002
     FM261700 00000KT 1SM BR OVC004=



000
FTUS46 KMFR 251732
TAFLMT
TAF
KLMT 251732Z 2518/2618 VRB03KT P6SM SKC=



000
FTUS46 KMFR 251131
TAFOTH
TAF
KOTH 251131Z 2512/2612 13004KT 4SM BR SCT005
     FM251600 15004KT P6SM SCT200
     FM252000 27005KT P6SM SKC
     FM260800 16004KT 5SM BR BKN008=



000
FTUS46 KMFR 251131
TAFLMT
TAF
KLMT 251131Z 2512/2612 00000KT P6SM SKC
     FM251400 00000KT 4SM BR VCFG FEW003
     FM251600 VRB03KT P6SM SKC=



000
FTUS46 KMFR 251131
TAFRBG
TAF
KRBG 251131Z 2512/2612 00000KT 1/4SM FG VV001
     FM251900 00000KT 1SM BR OVC003
     FM252100 VRB02KT P6SM SKC
     FM260800 00000KT 4SM BR OVC002
     FM261000 00000KT 1/4SM FG VV001=



000
FTUS46 KMFR 251131
TAFMFR
TAF
KMFR 251131Z 2512/2612 00000KT 1SM BR BKN002
     FM251300 00000KT 1/4SM FG VV001
     FM251900 00000KT 2SM BR BKN002
     FM252100 VRB03KT P6SM SKC
     FM261000 00000KT 3SM BR SCT002=



000
FTUS46 KMFR 250841 AAB
TAFOTH
TAF AMD
KOTH 250841Z 2509/2606 VRB03KT 1/4SM FG OVC002
     FM251500 13003KT 2SM BR BKN002 BKN200
     FM251600 13003KT P6SM SCT200
     FM252000 27005KT P6SM SKC
     FM260400 16004KT 5SM BR BKN008=



000
FTUS46 KMFR 250600 AAA
TAFOTH
TAF AMD
KOTH 250600Z 2506/2606 VRB03KT 1SM BR VCFG OVC002
     FM250900 13003KT 2SM BR VCFG BKN002 BKN200
     FM251400 13003KT P6SM SCT200
     FM252000 27005KT P6SM SKC=



000
FTUS46 KMFR 250544
TAFMFR
TAF
KMFR 250544Z 2506/2606 00000KT P6SM FEW200
     FM251000 00000KT 3SM BR BKN002
     FM251200 00000KT 1/4SM FG VV002
     FM252000 VRB03KT P6SM SKC=



000
FTUS46 KMFR 250544
TAFLMT
TAF
KLMT 250544Z 2506/2606 VRB03KT P6SM FEW150
     FM251200 VRB02KT 6SM BR VCFG FEW003
     FM251600 VRB03KT P6SM SKC=



000
FTUS46 KMFR 250544
TAFOTH
TAF
KOTH 250544Z 2506/2606 VRB03KT 5SM BR SCT200
     FM250900 13003KT 2SM BR VCFG BKN002 BKN200
     FM251400 13003KT P6SM SCT200
     FM252000 27005KT P6SM SKC=



000
FTUS46 KMFR 250544
TAFRBG
TAF
KRBG 250544Z 2506/2606 00000KT P6SM SCT200
     FM250900 00000KT 4SM BR OVC002
     FM251100 00000KT 1/4SM FG VV002
     FM251900 VRB02KT P6SM SKC=



000
FTUS46 KMFR 250313 AAA
TAFOTH
TAF AMD
KOTH 250313Z 2503/2524 VRB03KT 5SM BR SCT200
     FM250900 11003KT 3SM BR BKN002 BKN200
     FM251200 09005KT P6SM SCT200
     FM252000 27006KT P6SM SKC=



000
FTUS46 KMFR 242339
TAFLMT
TAF
KLMT 242339Z 2500/2524 VRB03KT P6SM FEW150=



000
FTUS46 KMFR 242339
TAFOTH
TAF
KOTH 242339Z 2500/2524 30004KT P6SM SCT200
     FM250900 11003KT 3SM BR BKN002 BKN200
     FM251200 09005KT P6SM SCT200
     FM252000 27006KT P6SM SKC=



000
FTUS46 KMFR 242339
TAFMFR
TAF
KMFR 242339Z 2500/2524 00000KT P6SM FEW200
     FM251000 00000KT 3SM BR OVC002
     FM251200 00000KT 1/4SM FG VV002
     FM252000 VRB02KT P6SM SKC=



000
FTUS46 KMFR 242339
TAFRBG
TAF
KRBG 242339Z 2500/2524 00000KT P6SM SCT200
     FM250800 00000KT 2SM BR OVC002
     FM251000 00000KT 1/4SM FG VV002
     FM252000 VRB02KT P6SM SKC=



000
FTUS46 KMFR 241900 AAB
TAFMFR
TAF AMD
KMFR 241900Z 2419/2518 00000KT 2SM BR OVC004
     FM242000 00000KT P6SM SCT200
     FM251000 00000KT 3SM BR OVC002
     FM251200 00000KT 1/4SM FG VV002=



000
FTUS46 KMFR 241830 AAA
TAFMFR
TAF AMD
KMFR 241830Z 2419/2518 00000KT 1/4SM FG VV002
     FM241900 00000KT P6SM SCT200
     FM251000 00000KT 3SM BR OVC002
     FM251200 00000KT 1/4SM FG VV002=



000
FTUS46 KMFR 241736
TAFMFR
TAF
KMFR 241736Z 2418/2518 00000KT 1/4SM FG VV002
     FM241830 00000KT P6SM SCT002 BKN200
     FM241900 00000KT P6SM SCT200
     FM251000 00000KT 3SM BR OVC002
     FM251200 00000KT 1/4SM FG VV002=



000
FTUS46 KMFR 241736
TAFLMT
TAF
KLMT 241736Z 2418/2518 VRB03KT P6SM SCT150
     FM251200 03005KT P6SM FEW150=



000
FTUS46 KMFR 241736
TAFOTH
TAF
KOTH 241736Z 2418/2518 VRB03KT P6SM SCT200
     FM250900 11003KT 3SM BR BKN002 BKN200
     FM251200 09005KT P6SM SCT200=



000
FTUS46 KMFR 241736
TAFRBG
TAF
KRBG 241736Z 2418/2518 00000KT 1/2SM FG OVC002
     FM241800 00000KT 2SM BR BKN002 BKN200
     FM241900 VRB03KT P6SM SCT200
     FM250800 00000KT 2SM BR OVC002
     FM251000 00000KT 1/4SM FG VV002=



000
FTUS46 KMFR 241631 AAB
TAFRBG
TAF AMD
KRBG 241631Z 2417/2512 00000KT 1/4SM FG VV001
     FM241800 00000KT 2SM BR BKN002 BKN200
     FM241900 VRB03KT P6SM SCT200
     FM250900 00000KT 2SM BR OVC002=



000
FTUS46 KMFR 241618 AAC
TAFMFR
TAF AMD
KMFR 241618Z 2416/2512 00000KT 1/4SM FG VV002
     FM241800 00000KT P6SM SCT002 BKN200
     FM241900 00000KT P6SM SCT200
     FM251000 00000KT 3SM BR OVC002=



000
FTUS46 KMFR 241451 AAB
TAFMFR
TAF AMD
KMFR 241451Z 2415/2512 00000KT 1/4SM FG VV002
     FM241700 00000KT 2SM BR BKN002 BKN200
     FM241800 00000KT 5SM BR SCT002 SCT200
     FM241900 00000KT P6SM SCT200
     FM251000 00000KT 3SM BR OVC002=



000
FTUS46 KMFR 241448 AAA
TAFOTH
TAF AMD
KOTH 241448Z 2415/2512 VRB03KT P6SM BKN200=



    US Dept of Commerce
    National Oceanic and Atmospheric Administration
    National Weather Service
    1325 East West Highway
    Silver Spring, MD 20910
    Page Author: NWS Internet Services Team
Disclaimer
Information Quality
Credits
Glossary
Privacy Policy
Freedom of Information Act (FOIA)
About Us
Career Opportunities